Time;durP1;ratioP1;P1;durP2;ratioP2;P2;SDS_P1;SDS_P2;PMS_P1;PMS_P2;Temp;Humidity;BMP_temperature;BMP_pressure;BME280_temperature;BME280_humidity;BME280_pressure;Samples;Min_cycle;Max_cycle;Signal;HPM_P1;HPM_P2
2022/03/11 00:00:30;;;;;;;25.60;10.70;;;;;;;;;;5059321;28;20439;-63
2022/03/11 00:02:56;;;;;;;19.25;9.75;;;;;;;;;;5065919;28;20112;-60
2022/03/11 00:05:21;;;;;;;22.05;10.18;;;;;;;;;;5061175;28;20507;-60
2022/03/11 00:07:47;;;;;;;19.55;10.32;;;;;;;;;;5055040;28;20028;-60
2022/03/11 00:10:12;;;;;;;28.70;13.05;;;;;;;;;;5062415;28;20036;-60
2022/03/11 00:12:38;;;;;;;22.30;11.65;;;;;;;;;;5069871;28;20053;-60
2022/03/11 00:15:05;;;;;;;21.63;11.00;;;;;;;;;;5069309;28;20048;-60
2022/03/11 00:17:31;;;;;;;23.25;11.13;;;;;;;;;;5062641;28;20488;-61
2022/03/11 00:19:56;;;;;;;20.88;10.50;;;;;;;;;;5065136;28;20020;-60
2022/03/11 00:22:22;;;;;;;23.90;11.70;;;;;;;;;;5070233;28;20012;-60
2022/03/11 00:24:47;;;;;;;20.63;11.13;;;;;;;;;;5065417;28;20032;-59
2022/03/11 00:27:13;;;;;;;22.00;11.50;;;;;;;;;;5067755;28;20055;-61
2022/03/11 00:29:38;;;;;;;22.38;10.07;;;;;;;;;;5063318;28;20471;-60
2022/03/11 00:32:04;;;;;;;27.70;12.60;;;;;;;;;;5067666;28;20110;-60
2022/03/11 00:34:29;;;;;;;21.88;12.10;;;;;;;;;;5064749;28;20028;-60
2022/03/11 00:36:55;;;;;;;25.45;11.73;;;;;;;;;;5062751;28;20083;-60
2022/03/11 00:39:20;;;;;;;25.33;12.07;;;;;;;;;;5062365;28;20463;-61
2022/03/11 00:41:45;;;;;;;26.65;11.35;;;;;;;;;;5066108;28;20032;-61
2022/03/11 00:44:11;;;;;;;27.92;13.00;;;;;;;;;;5063460;28;20032;-61
2022/03/11 00:46:36;;;;;;;25.65;12.90;;;;;;;;;;5065756;28;20028;-61
2022/03/11 00:49:02;;;;;;;24.75;12.32;;;;;;;;;;5063483;28;20024;-60
2022/03/11 00:51:27;;;;;;;24.63;12.38;;;;;;;;;;5066438;28;20029;-60
2022/03/11 00:53:53;;;;;;;27.10;13.20;;;;;;;;;;5061767;28;20033;-60
2022/03/11 00:56:18;;;;;;;29.92;13.10;;;;;;;;;;5061235;28;20028;-60
2022/03/11 00:58:46;;;;;;;27.10;13.43;;;;;;;;;;5056101;28;20486;-60
2022/03/11 01:01:11;;;;;;;28.65;13.80;;;;;;;;;;5061139;28;20217;-60
2022/03/11 01:03:37;;;;;;;29.05;14.30;;;;;;;;;;5057585;28;20051;-59
2022/03/11 01:06:02;;;;;;;30.23;14.73;;;;;;;;;;5060306;28;20052;-60
2022/03/11 01:08:27;;;;;;;30.17;14.00;;;;;;;;;;5061676;28;20031;-60
2022/03/11 01:10:53;;;;;;;29.48;13.52;;;;;;;;;;5068548;28;20479;-61
2022/03/11 01:13:18;;;;;;;30.00;14.07;;;;;;;;;;5066381;28;20540;-60
2022/03/11 01:15:45;;;;;;;27.15;13.57;;;;;;;;;;5064688;28;20056;-61
2022/03/11 01:18:10;;;;;;;30.60;15.07;;;;;;;;;;5064302;28;20388;-61
2022/03/11 01:20:36;;;;;;;28.25;13.93;;;;;;;;;;5065733;28;20055;-60
2022/03/11 01:23:01;;;;;;;30.83;13.77;;;;;;;;;;5057917;28;20033;-61
2022/03/11 01:25:26;;;;;;;29.30;15.00;;;;;;;;;;5060437;28;20067;-60
2022/03/11 01:27:52;;;;;;;31.65;14.90;;;;;;;;;;5058931;28;20025;-60
2022/03/11 01:30:17;;;;;;;32.47;16.65;;;;;;;;;;5067320;28;20495;-60
2022/03/11 01:32:43;;;;;;;35.33;16.60;;;;;;;;;;5064420;28;20036;-60
2022/03/11 01:35:10;;;;;;;32.00;14.68;;;;;;;;;;5060668;28;20027;-60
2022/03/11 01:37:35;;;;;;;33.78;15.88;;;;;;;;;;5065064;28;20028;-60
2022/03/11 01:40:02;;;;;;;33.13;15.50;;;;;;;;;;5063313;28;20029;-60
2022/03/11 01:42:27;;;;;;;36.92;16.38;;;;;;;;;;5063965;28;20043;-60
2022/03/11 01:44:53;;;;;;;31.48;15.32;;;;;;;;;;5061055;28;20495;-60
2022/03/11 01:47:19;;;;;;;31.58;14.85;;;;;;;;;;5059177;28;20020;-59
2022/03/11 01:49:45;;;;;;;37.05;16.02;;;;;;;;;;5055905;28;20111;-60
2022/03/11 01:52:13;;;;;;;29.98;15.32;;;;;;;;;;5065999;28;20622;-60
2022/03/11 01:54:41;;;;;;;33.67;15.75;;;;;;;;;;5062992;28;20436;-61
2022/03/11 01:57:08;;;;;;;37.92;17.35;;;;;;;;;;5060483;28;20399;-60
2022/03/11 01:59:33;;;;;;;36.80;16.40;;;;;;;;;;5059326;28;20521;-60
2022/03/11 02:01:58;;;;;;;34.33;16.85;;;;;;;;;;5056724;28;20151;-59
2022/03/11 02:04:24;;;;;;;32.85;16.02;;;;;;;;;;5056889;28;20025;-59
2022/03/11 02:06:49;;;;;;;37.10;17.00;;;;;;;;;;5055928;28;20060;-60
2022/03/11 02:09:15;;;;;;;34.53;16.02;;;;;;;;;;5062861;28;20035;-61
2022/03/11 02:11:40;;;;;;;39.17;16.85;;;;;;;;;;5061710;28;20027;-60
2022/03/11 02:14:05;;;;;;;36.95;16.90;;;;;;;;;;5066121;28;20554;-61
2022/03/11 02:16:36;;;;;;;39.25;16.75;;;;;;;;;;5064641;28;20037;-60
2022/03/11 02:19:02;;;;;;;39.38;17.73;;;;;;;;;;5059441;28;20556;-60
2022/03/11 02:21:27;;;;;;;35.80;18.08;;;;;;;;;;5059706;28;20025;-60
2022/03/11 02:23:58;;;;;;;39.15;18.60;;;;;;;;;;5063491;28;20538;-60
2022/03/11 02:26:26;;;;;;;34.80;17.25;;;;;;;;;;5060845;28;20028;-61
2022/03/11 02:28:53;;;;;;;36.83;17.35;;;;;;;;;;5057738;28;20033;-61
2022/03/11 02:31:20;;;;;;;32.97;16.67;;;;;;;;;;5063724;28;20020;-60
2022/03/11 02:33:46;;;;;;;36.28;16.23;;;;;;;;;;5065561;28;20028;-60
2022/03/11 02:36:11;;;;;;;37.80;17.55;;;;;;;;;;5064109;28;20024;-60
2022/03/11 02:38:37;;;;;;;34.08;16.48;;;;;;;;;;5066864;28;20028;-60
2022/03/11 02:41:03;;;;;;;33.33;16.27;;;;;;;;;;5062025;28;21320;-60
2022/03/11 02:43:29;;;;;;;33.85;16.35;;;;;;;;;;5061981;28;20033;-60
2022/03/11 02:45:54;;;;;;;32.72;16.55;;;;;;;;;;5061321;28;20035;-61
2022/03/11 02:48:20;;;;;;;36.25;16.80;;;;;;;;;;5052726;28;20119;-61
2022/03/11 02:50:45;;;;;;;36.53;16.33;;;;;;;;;;5055761;28;20051;-61
2022/03/11 02:53:11;;;;;;;39.72;17.40;;;;;;;;;;5060907;28;20020;-61
2022/03/11 02:55:37;;;;;;;39.33;16.95;;;;;;;;;;5056396;28;20436;-60
2022/03/11 02:58:03;;;;;;;37.17;17.20;;;;;;;;;;5053792;28;20040;-60
2022/03/11 03:00:28;;;;;;;38.53;17.05;;;;;;;;;;5058354;28;20477;-60
2022/03/11 03:02:54;;;;;;;36.78;16.70;;;;;;;;;;5065047;28;20035;-60
2022/03/11 03:05:19;;;;;;;33.80;17.00;;;;;;;;;;5066881;28;20024;-60
2022/03/11 03:07:44;;;;;;;37.85;16.40;;;;;;;;;;5053754;28;20178;-60
2022/03/11 03:10:13;;;;;;;42.50;18.63;;;;;;;;;;5066183;28;20498;-59
2022/03/11 03:12:39;;;;;;;33.30;16.33;;;;;;;;;;5062910;28;20109;-60
2022/03/11 03:15:06;;;;;;;40.10;17.58;;;;;;;;;;5065976;28;20035;-60
2022/03/11 03:17:32;;;;;;;36.13;17.42;;;;;;;;;;5065770;28;20418;-60
2022/03/11 03:19:57;;;;;;;39.80;16.17;;;;;;;;;;5059896;28;20120;-60
2022/03/11 03:22:23;;;;;;;33.05;16.83;;;;;;;;;;5065932;28;20048;-61
2022/03/11 03:24:49;;;;;;;37.63;17.13;;;;;;;;;;5065218;28;20036;-60
2022/03/11 03:27:14;;;;;;;37.35;15.80;;;;;;;;;;5058344;28;20377;-60
2022/03/11 03:29:40;;;;;;;36.47;16.13;;;;;;;;;;5058072;28;20086;-60
2022/03/11 03:32:06;;;;;;;36.42;16.20;;;;;;;;;;5063129;28;20043;-60
2022/03/11 03:34:33;;;;;;;35.03;15.77;;;;;;;;;;5057964;28;20318;-61
2022/03/11 03:37:01;;;;;;;39.63;16.15;;;;;;;;;;5063860;28;20028;-60
2022/03/11 03:39:27;;;;;;;34.30;16.40;;;;;;;;;;5059166;28;20032;-59
2022/03/11 03:41:53;;;;;;;36.83;15.82;;;;;;;;;;5064611;28;20115;-59
2022/03/11 03:44:19;;;;;;;38.30;16.50;;;;;;;;;;5061757;28;20039;-60
2022/03/11 03:46:45;;;;;;;33.85;15.50;;;;;;;;;;5060894;28;20020;-60
2022/03/11 03:49:10;;;;;;;34.03;15.32;;;;;;;;;;5060453;28;20029;-60
2022/03/11 03:51:38;;;;;;;34.53;15.23;;;;;;;;;;5057555;28;20029;-60
2022/03/11 03:54:04;;;;;;;37.50;16.35;;;;;;;;;;5061123;28;20059;-60
2022/03/11 03:56:30;;;;;;;39.58;15.90;;;;;;;;;;5058997;28;20051;-60
2022/03/11 03:58:55;;;;;;;31.25;14.75;;;;;;;;;;5064155;28;20395;-59
2022/03/11 04:01:21;;;;;;;35.50;15.73;;;;;;;;;;5061218;28;20426;-60
2022/03/11 04:03:46;;;;;;;35.63;15.77;;;;;;;;;;5057800;28;20488;-61
2022/03/11 04:06:11;;;;;;;36.75;15.68;;;;;;;;;;5057578;28;20032;-60
2022/03/11 04:08:37;;;;;;;34.30;14.40;;;;;;;;;;5062552;28;20059;-60
2022/03/11 04:11:02;;;;;;;33.45;14.38;;;;;;;;;;5065473;28;20052;-60
2022/03/11 04:13:28;;;;;;;34.38;14.38;;;;;;;;;;5069298;28;20086;-60
2022/03/11 04:15:54;;;;;;;33.65;14.02;;;;;;;;;;5065235;28;20511;-60
2022/03/11 04:18:19;;;;;;;32.53;14.60;;;;;;;;;;5065381;28;20036;-59
2022/03/11 04:20:45;;;;;;;35.05;14.30;;;;;;;;;;5059727;28;20123;-61
2022/03/11 04:23:10;;;;;;;35.30;14.30;;;;;;;;;;5068590;28;20025;-60
2022/03/11 04:25:36;;;;;;;30.85;13.98;;;;;;;;;;5064660;28;20036;-60
2022/03/11 04:28:01;;;;;;;28.92;13.55;;;;;;;;;;5064535;28;20100;-59
2022/03/11 04:30:27;;;;;;;31.65;13.50;;;;;;;;;;5069140;28;20024;-59
2022/03/11 04:32:52;;;;;;;30.08;13.45;;;;;;;;;;5060782;28;20488;-61
2022/03/11 04:35:19;;;;;;;31.83;14.57;;;;;;;;;;5066372;28;20020;-59
2022/03/11 04:37:44;;;;;;;33.38;14.70;;;;;;;;;;5063328;28;20028;-60
2022/03/11 04:40:10;;;;;;;28.23;13.40;;;;;;;;;;5066831;28;20559;-61
2022/03/11 04:42:36;;;;;;;29.30;13.68;;;;;;;;;;5056848;28;20028;-60
2022/03/11 04:45:03;;;;;;;28.40;13.77;;;;;;;;;;5065301;28;20035;-61
2022/03/11 04:47:28;;;;;;;26.83;12.35;;;;;;;;;;5067090;28;20044;-60
2022/03/11 04:49:54;;;;;;;31.58;12.63;;;;;;;;;;5061731;28;20393;-60
2022/03/11 04:52:20;;;;;;;27.58;12.07;;;;;;;;;;5068427;28;20120;-59
2022/03/11 04:54:45;;;;;;;30.23;12.13;;;;;;;;;;5062831;28;20063;-60
2022/03/11 04:57:10;;;;;;;25.95;12.50;;;;;;;;;;5059686;28;20028;-60
2022/03/11 04:59:36;;;;;;;28.73;12.55;;;;;;;;;;5063179;28;20055;-60
2022/03/11 05:02:01;;;;;;;29.52;13.23;;;;;;;;;;5055632;28;20476;-61
2022/03/11 05:04:27;;;;;;;26.15;12.45;;;;;;;;;;5064524;28;20042;-59
2022/03/11 05:06:52;;;;;;;31.60;12.77;;;;;;;;;;5060447;28;20029;-60
2022/03/11 05:09:18;;;;;;;42.67;13.50;;;;;;;;;;5064950;28;20035;-60
2022/03/11 05:11:43;;;;;;;28.55;12.35;;;;;;;;;;5067902;28;20451;-60
2022/03/11 05:14:09;;;;;;;24.10;11.57;;;;;;;;;;5065625;28;20150;-60
2022/03/11 05:16:34;;;;;;;29.52;12.68;;;;;;;;;;5067781;28;20056;-60
2022/03/11 05:18:59;;;;;;;25.90;11.95;;;;;;;;;;5065655;28;20020;-60
2022/03/11 05:21:25;;;;;;;28.15;12.07;;;;;;;;;;5058321;28;20028;-60
2022/03/11 05:23:50;;;;;;;25.15;11.15;;;;;;;;;;5059060;28;20431;-60
2022/03/11 05:26:25;;;;;;;24.73;11.48;;;;;;;;;;5069062;28;20020;-60
2022/03/11 05:28:56;;;;;;;25.27;11.20;;;;;;;;;;5065064;28;20134;-60
2022/03/11 05:31:22;;;;;;;25.98;11.27;;;;;;;;;;5055866;28;20028;-60
2022/03/11 05:33:48;;;;;;;23.38;10.75;;;;;;;;;;5061777;28;20262;-60
2022/03/11 05:36:14;;;;;;;28.55;11.23;;;;;;;;;;5058140;28;20033;-60
2022/03/11 05:38:40;;;;;;;24.85;10.88;;;;;;;;;;5053191;28;20106;-60
2022/03/11 05:41:05;;;;;;;26.00;11.27;;;;;;;;;;5062686;28;20074;-59
2022/03/11 05:43:31;;;;;;;24.10;11.07;;;;;;;;;;5058334;28;20096;-60
2022/03/11 05:45:56;;;;;;;30.27;12.27;;;;;;;;;;5067693;28;20025;-59
2022/03/11 05:48:21;;;;;;;22.70;10.13;;;;;;;;;;5062350;28;20121;-59
2022/03/11 05:50:47;;;;;;;26.40;9.77;;;;;;;;;;5059751;28;20727;-60
2022/03/11 05:53:12;;;;;;;23.60;10.13;;;;;;;;;;5055295;28;20032;-60
2022/03/11 05:55:37;;;;;;;24.25;10.85;;;;;;;;;;5059691;28;20078;-60
2022/03/11 05:58:03;;;;;;;28.15;10.73;;;;;;;;;;5060932;28;20040;-61
2022/03/11 06:00:28;;;;;;;22.58;10.40;;;;;;;;;;5057924;28;20075;-60
2022/03/11 06:02:54;;;;;;;22.13;9.63;;;;;;;;;;5064892;28;20060;-60
2022/03/11 06:05:19;;;;;;;22.27;9.35;;;;;;;;;;5067561;28;20027;-60
2022/03/11 06:07:44;;;;;;;22.67;9.85;;;;;;;;;;5065949;28;20391;-60
2022/03/11 06:10:10;;;;;;;24.25;10.20;;;;;;;;;;5067311;28;20044;-60
2022/03/11 06:12:36;;;;;;;26.92;10.52;;;;;;;;;;5065158;28;20112;-59
2022/03/11 06:15:08;;;;;;;24.17;9.50;;;;;;;;;;5065238;28;20100;-60
2022/03/11 06:17:34;;;;;;;23.83;10.77;;;;;;;;;;5064850;28;20025;-60
2022/03/11 06:19:59;;;;;;;24.63;10.02;;;;;;;;;;5063659;28;20306;-59
2022/03/11 06:22:25;;;;;;;24.92;9.75;;;;;;;;;;5061915;28;20074;-60
2022/03/11 06:24:50;;;;;;;21.02;9.23;;;;;;;;;;5057997;28;20460;-61
2022/03/11 06:27:16;;;;;;;22.45;9.65;;;;;;;;;;5058450;28;20036;-60
2022/03/11 06:29:41;;;;;;;21.92;10.15;;;;;;;;;;5058785;28;20097;-60
2022/03/11 06:32:07;;;;;;;19.30;9.40;;;;;;;;;;5058004;28;20495;-60
2022/03/11 06:34:33;;;;;;;21.90;9.48;;;;;;;;;;5058941;28;20033;-60
2022/03/11 06:36:58;;;;;;;23.48;10.52;;;;;;;;;;5062427;28;20174;-61
2022/03/11 06:39:24;;;;;;;23.35;9.73;;;;;;;;;;5059712;28;20089;-59
2022/03/11 06:41:49;;;;;;;27.17;10.18;;;;;;;;;;5059179;28;20021;-59
2022/03/11 06:44:16;;;;;;;20.23;9.27;;;;;;;;;;5048614;28;20043;-60
2022/03/11 06:46:42;;;;;;;19.63;9.23;;;;;;;;;;5056742;28;20039;-60
2022/03/11 06:49:07;;;;;;;34.55;10.30;;;;;;;;;;5060397;28;20028;-60
2022/03/11 06:51:33;;;;;;;25.08;10.13;;;;;;;;;;5061812;28;20155;-60
2022/03/11 06:53:58;;;;;;;27.83;10.65;;;;;;;;;;5056484;28;20092;-60
2022/03/11 06:56:23;;;;;;;24.13;10.43;;;;;;;;;;5060725;28;20398;-58
2022/03/11 06:58:49;;;;;;;19.45;8.38;;;;;;;;;;5061384;28;20500;-60
2022/03/11 07:01:16;;;;;;;19.52;9.18;;;;;;;;;;5060012;28;20387;-59
2022/03/11 07:03:42;;;;;;;23.77;8.88;;;;;;;;;;5053228;28;20024;-60
2022/03/11 07:06:07;;;;;;;20.00;8.70;;;;;;;;;;5058681;28;20017;-60
2022/03/11 07:08:32;;;;;;;23.98;10.02;;;;;;;;;;5058064;28;20091;-59
2022/03/11 07:10:59;;;;;;;23.40;9.48;;;;;;;;;;5062926;28;20025;-60
2022/03/11 07:13:24;;;;;;;20.30;10.02;;;;;;;;;;5050954;28;20021;-61
2022/03/11 07:15:49;;;;;;;18.33;8.60;;;;;;;;;;5047818;28;20427;-60
2022/03/11 07:18:15;;;;;;;18.88;8.90;;;;;;;;;;5057043;28;20048;-59
2022/03/11 07:20:40;;;;;;;21.25;8.70;;;;;;;;;;5054894;28;20047;-60
2022/03/11 07:23:06;;;;;;;19.95;9.15;;;;;;;;;;5060691;28;20449;-59
2022/03/11 07:25:32;;;;;;;22.02;9.45;;;;;;;;;;5063235;28;20039;-59
2022/03/11 07:27:57;;;;;;;19.27;9.32;;;;;;;;;;5055215;28;20158;-60
2022/03/11 07:30:23;;;;;;;22.60;9.40;;;;;;;;;;5052011;28;20417;-60
2022/03/11 07:32:50;;;;;;;17.90;8.52;;;;;;;;;;5052790;28;20488;-60
2022/03/11 07:35:15;;;;;;;23.15;9.85;;;;;;;;;;5058080;28;20029;-60
2022/03/11 07:37:41;;;;;;;19.60;9.20;;;;;;;;;;5051716;28;20027;-60
2022/03/11 07:40:08;;;;;;;21.35;9.35;;;;;;;;;;5056007;28;20036;-59
2022/03/11 07:42:33;;;;;;;21.25;9.32;;;;;;;;;;5048612;28;20508;-59
2022/03/11 07:45:00;;;;;;;20.80;8.98;;;;;;;;;;5051496;28;20029;-60
2022/03/11 07:47:25;;;;;;;18.67;8.98;;;;;;;;;;5051426;28;20033;-60
2022/03/11 07:49:51;;;;;;;19.83;8.98;;;;;;;;;;5049430;28;20036;-60
2022/03/11 07:52:17;;;;;;;21.42;9.18;;;;;;;;;;5057148;28;20032;-60
2022/03/11 07:54:43;;;;;;;20.38;9.10;;;;;;;;;;5053977;28;20116;-60
2022/03/11 07:57:09;;;;;;;24.35;9.77;;;;;;;;;;5056153;28;20060;-60
2022/03/11 07:59:36;;;;;;;21.58;10.48;;;;;;;;;;5060253;28;20111;-60
2022/03/11 08:02:02;;;;;;;21.48;9.05;;;;;;;;;;5052550;28;20028;-60
2022/03/11 08:04:29;;;;;;;24.50;9.55;;;;;;;;;;5055034;28;20039;-60
2022/03/11 08:06:55;;;;;;;21.77;9.52;;;;;;;;;;5059235;28;20111;-59
2022/03/11 08:09:20;;;;;;;22.45;9.93;;;;;;;;;;5056822;28;20112;-60
2022/03/11 08:11:45;;;;;;;24.17;10.20;;;;;;;;;;5052768;28;20032;-60
2022/03/11 08:14:13;;;;;;;21.30;10.27;;;;;;;;;;5060095;28;20372;-60
2022/03/11 08:16:39;;;;;;;19.65;9.00;;;;;;;;;;5055888;28;20128;-60
2022/03/11 08:19:06;;;;;;;19.23;9.65;;;;;;;;;;5058870;28;20120;-60
2022/03/11 08:21:32;;;;;;;23.35;9.32;;;;;;;;;;5053941;28;20024;-59
2022/03/11 08:23:57;;;;;;;21.60;9.95;;;;;;;;;;5059043;28;20457;-60
2022/03/11 08:26:26;;;;;;;23.67;9.25;;;;;;;;;;5052994;28;20056;-60
2022/03/11 08:28:53;;;;;;;21.40;9.45;;;;;;;;;;5056347;28;20341;-60
2022/03/11 08:31:18;;;;;;;22.85;10.25;;;;;;;;;;5052812;28;20106;-60
2022/03/11 08:33:43;;;;;;;27.40;10.23;;;;;;;;;;5060593;28;20044;-61
2022/03/11 08:36:09;;;;;;;20.27;10.23;;;;;;;;;;5053405;28;20116;-61
2022/03/11 08:38:35;;;;;;;22.05;10.18;;;;;;;;;;5052610;28;20033;-60
2022/03/11 08:41:02;;;;;;;28.58;12.10;;;;;;;;;;5058461;28;20088;-60
2022/03/11 08:43:28;;;;;;;33.25;13.80;;;;;;;;;;5053053;28;20695;-60
2022/03/11 08:45:53;;;;;;;49.15;18.73;;;;;;;;;;5057221;28;20029;-59
2022/03/11 08:48:18;;;;;;;41.35;17.17;;;;;;;;;;5054200;28;20082;-59
2022/03/11 08:50:44;;;;;;;45.90;18.42;;;;;;;;;;5051461;28;20037;-60
2022/03/11 08:53:10;;;;;;;40.47;17.08;;;;;;;;;;5058701;28;20091;-60
2022/03/11 08:55:37;;;;;;;37.45;16.25;;;;;;;;;;5055408;28;20060;-60
2022/03/11 08:58:03;;;;;;;45.05;17.13;;;;;;;;;;5053253;28;20033;-60
2022/03/11 09:00:28;;;;;;;33.78;14.63;;;;;;;;;;5056686;28;20040;-60
2022/03/11 09:02:54;;;;;;;26.35;12.85;;;;;;;;;;5050297;28;20025;-60
2022/03/11 09:05:20;;;;;;;23.75;11.70;;;;;;;;;;5052480;28;20104;-60
2022/03/11 09:07:48;;;;;;;32.63;12.43;;;;;;;;;;5055746;28;20030;-60
2022/03/11 09:10:13;;;;;;;24.10;11.52;;;;;;;;;;5049448;28;20033;-61
2022/03/11 09:12:40;;;;;;;29.02;12.45;;;;;;;;;;5053982;28;20032;-59
2022/03/11 09:15:07;;;;;;;30.00;14.32;;;;;;;;;;5058092;28;20060;-61
2022/03/11 09:17:33;;;;;;;27.48;12.70;;;;;;;;;;5058568;28;20440;-61
2022/03/11 09:20:03;;;;;;;29.58;14.10;;;;;;;;;;5063433;28;20089;-60
2022/03/11 09:22:31;;;;;;;27.88;12.18;;;;;;;;;;5056596;28;20016;-59
2022/03/11 09:24:58;;;;;;;22.75;11.70;;;;;;;;;;5054409;28;20511;-59
2022/03/11 09:27:23;;;;;;;28.38;12.10;;;;;;;;;;5058898;28;20097;-61
2022/03/11 09:29:50;;;;;;;26.08;12.55;;;;;;;;;;5052022;28;20427;-61
2022/03/11 09:32:15;;;;;;;24.63;11.35;;;;;;;;;;5055839;28;20020;-61
2022/03/11 09:34:41;;;;;;;24.95;12.43;;;;;;;;;;5057146;28;20403;-60
2022/03/11 09:37:07;;;;;;;26.42;11.45;;;;;;;;;;5058606;28;20028;-60
2022/03/11 09:39:32;;;;;;;23.42;11.55;;;;;;;;;;5062282;28;20111;-60
2022/03/11 09:41:58;;;;;;;25.25;12.07;;;;;;;;;;5052879;28;20028;-61
2022/03/11 09:44:24;;;;;;;23.02;12.40;;;;;;;;;;5056797;28;20722;-60
2022/03/11 09:46:50;;;;;;;25.40;13.13;;;;;;;;;;5052571;28;20547;-61
2022/03/11 09:49:17;;;;;;;22.25;13.00;;;;;;;;;;5051175;28;20037;-61
2022/03/11 09:51:45;;;;;;;24.10;12.43;;;;;;;;;;5055809;28;20036;-61
2022/03/11 09:54:11;;;;;;;24.70;11.98;;;;;;;;;;5051557;28;20119;-61
2022/03/11 09:56:41;;;;;;;21.20;12.13;;;;;;;;;;5049371;28;20064;-61
2022/03/11 09:59:08;;;;;;;22.92;12.63;;;;;;;;;;5049113;28;20082;-60
2022/03/11 10:01:34;;;;;;;25.45;11.63;;;;;;;;;;5048946;28;20063;-60
2022/03/11 10:04:03;;;;;;;23.42;11.90;;;;;;;;;;5053600;28;20035;-60
2022/03/11 10:06:45;;;;;;;22.80;11.33;;;;;;;;;;5049720;28;20032;-61
2022/03/11 10:09:19;;;;;;;22.27;11.05;;;;;;;;;;5052687;28;20032;-61
2022/03/11 10:11:53;;;;;;;23.80;11.75;;;;;;;;;;5049464;28;20094;-61
2022/03/11 10:14:27;;;;;;;20.30;11.00;;;;;;;;;;5049343;28;20052;-62
2022/03/11 10:16:52;;;;;;;24.92;12.63;;;;;;;;;;5053780;28;20044;-61
2022/03/11 10:19:19;;;;;;;19.85;10.65;;;;;;;;;;5055578;28;20033;-60
2022/03/11 10:21:46;;;;;;;18.75;11.25;;;;;;;;;;5052476;28;20024;-61
2022/03/11 10:24:13;;;;;;;24.08;11.15;;;;;;;;;;5057605;28;20020;-60
2022/03/11 10:26:42;;;;;;;25.27;12.20;;;;;;;;;;5052397;28;20119;-61
2022/03/11 10:29:10;;;;;;;20.52;11.50;;;;;;;;;;5053741;28;20119;-61
2022/03/11 10:31:42;;;;;;;18.58;11.30;;;;;;;;;;5056446;28;20107;-60
2022/03/11 10:34:13;;;;;;;21.73;11.50;;;;;;;;;;5058059;28;20025;-61
2022/03/11 10:36:49;;;;;;;21.15;11.82;;;;;;;;;;5056912;28;20033;-60
2022/03/11 10:39:16;;;;;;;25.15;12.45;;;;;;;;;;5057885;28;20028;-61
2022/03/11 10:41:41;;;;;;;19.42;11.48;;;;;;;;;;5051238;28;20152;-61
2022/03/11 10:44:11;;;;;;;22.98;12.45;;;;;;;;;;5060775;28;20104;-61
2022/03/11 10:46:36;;;;;;;19.17;11.98;;;;;;;;;;5052859;28;20388;-63
2022/03/11 10:49:02;;;;;;;22.13;12.27;;;;;;;;;;5056300;28;20078;-61
2022/03/11 10:51:32;;;;;;;22.00;12.77;;;;;;;;;;5059886;28;20024;-61
2022/03/11 10:54:02;;;;;;;21.38;12.90;;;;;;;;;;5054622;28;20078;-60
2022/03/11 10:56:34;;;;;;;20.45;11.80;;;;;;;;;;5048949;28;20021;-62
2022/03/11 10:59:28;;;;;;;22.27;12.77;;;;;;;;;;5050753;28;20032;-65
2022/03/11 11:01:57;;;;;;;23.75;13.55;;;;;;;;;;5061110;28;20043;-62
2022/03/11 11:04:23;;;;;;;16.60;10.10;;;;;;;;;;5061141;28;20025;-61
2022/03/11 11:06:49;;;;;;;18.83;9.90;;;;;;;;;;5059558;28;20108;-61
2022/03/11 11:09:17;;;;;;;19.50;9.95;;;;;;;;;;5057398;28;20108;-62
2022/03/11 11:11:43;;;;;;;19.05;11.02;;;;;;;;;;5056594;28;20029;-61
2022/03/11 11:14:10;;;;;;;24.05;11.25;;;;;;;;;;5066229;28;20043;-61
2022/03/11 11:16:41;;;;;;;20.75;11.20;;;;;;;;;;5055642;28;20047;-60
2022/03/11 11:19:08;;;;;;;19.77;11.27;;;;;;;;;;5055861;28;20029;-61
2022/03/11 11:21:35;;;;;;;22.58;13.30;;;;;;;;;;5063391;28;20097;-62
2022/03/11 11:24:04;;;;;;;19.10;12.68;;;;;;;;;;5058037;28;20029;-62
2022/03/11 11:26:29;;;;;;;25.33;13.82;;;;;;;;;;5066140;28;20492;-62
2022/03/11 11:28:58;;;;;;;25.77;13.00;;;;;;;;;;5064198;28;20040;-61
2022/03/11 11:31:24;;;;;;;22.17;12.57;;;;;;;;;;5062544;28;20025;-61
2022/03/11 11:33:50;;;;;;;22.90;13.20;;;;;;;;;;5055225;28;20037;-63
2022/03/11 11:36:40;;;;;;;23.83;13.13;;;;;;;;;;5055997;28;20030;-62
2022/03/11 11:39:07;;;;;;;24.02;14.05;;;;;;;;;;5059361;28;20106;-61
2022/03/11 11:41:34;;;;;;;22.33;13.75;;;;;;;;;;5055850;28;20572;-62
2022/03/11 11:44:04;;;;;;;18.02;10.82;;;;;;;;;;5059619;28;20036;-62
2022/03/11 11:46:36;;;;;;;27.17;12.48;;;;;;;;;;5058332;28;20029;-60
2022/03/11 11:49:08;;;;;;;22.10;11.70;;;;;;;;;;5057770;28;20032;-60
2022/03/11 11:51:37;;;;;;;17.63;11.73;;;;;;;;;;5054793;28;20086;-60
2022/03/11 11:54:14;;;;;;;21.08;11.98;;;;;;;;;;5059428;28;20021;-60
2022/03/11 11:57:00;;;;;;;20.85;12.00;;;;;;;;;;5051588;28;20036;-62
2022/03/11 11:59:29;;;;;;;25.30;13.95;;;;;;;;;;5053681;28;20024;-62
2022/03/11 12:01:56;;;;;;;23.35;13.43;;;;;;;;;;5066651;28;20028;-63
2022/03/11 12:04:28;;;;;;;19.80;13.55;;;;;;;;;;5058391;28;20062;-63
2022/03/11 12:07:03;;;;;;;23.58;13.63;;;;;;;;;;5056224;28;20051;-63
2022/03/11 12:09:37;;;;;;;23.02;13.88;;;;;;;;;;5053147;28;20055;-62
2022/03/11 12:12:03;;;;;;;28.55;13.77;;;;;;;;;;5052654;28;20495;-63
2022/03/11 12:14:29;;;;;;;25.40;14.50;;;;;;;;;;5053220;28;20017;-62
2022/03/11 12:17:03;;;;;;;25.83;14.18;;;;;;;;;;5061003;28;20028;-64
2022/03/11 12:19:36;;;;;;;24.70;14.13;;;;;;;;;;5056489;28;20499;-62
2022/03/11 12:22:31;;;;;;;25.10;14.68;;;;;;;;;;5056566;28;20032;-64
2022/03/11 12:25:01;;;;;;;24.23;15.07;;;;;;;;;;5056031;28;20055;-62
2022/03/11 12:27:55;;;;;;;25.70;14.55;;;;;;;;;;5053168;28;20021;-61
2022/03/11 12:30:20;;;;;;;22.00;13.10;;;;;;;;;;5051388;28;20388;-60
2022/03/11 12:32:48;;;;;;;26.48;14.23;;;;;;;;;;5049485;28;20029;-60
2022/03/11 12:35:17;;;;;;;23.50;14.00;;;;;;;;;;5055066;28;20033;-61
2022/03/11 12:37:43;;;;;;;;;;;;;;;;;;5056590;28;20354;-61
2022/03/11 12:40:09;;;;;;;27.67;15.82;;;;;;;;;;5060151;28;20303;-59
2022/03/11 12:42:42;;;;;;;26.02;15.80;;;;;;;;;;5053340;28;20124;-63
2022/03/11 12:45:08;;;;;;;23.23;15.15;;;;;;;;;;5055329;28;20039;-62
2022/03/11 12:47:38;;;;;;;29.85;15.50;;;;;;;;;;5049986;28;20059;-61
2022/03/11 12:50:05;;;;;;;23.60;14.80;;;;;;;;;;5057190;28;20041;-62
2022/03/11 12:52:40;;;;;;;27.00;15.52;;;;;;;;;;5054006;28;20033;-62
2022/03/11 12:55:37;;;;;;;24.83;15.45;;;;;;;;;;5051570;28;20032;-63
2022/03/11 12:58:11;;;;;;;32.55;15.68;;;;;;;;;;5043635;28;20498;-63
2022/03/11 13:00:38;;;;;;;26.05;15.50;;;;;;;;;;5051406;28;20037;-62
2022/03/11 13:03:07;;;;;;;24.42;15.18;;;;;;;;;;5054492;28;20108;-61
2022/03/11 13:05:33;;;;;;;24.30;14.90;;;;;;;;;;5052563;28;20670;-62
2022/03/11 13:08:03;;;;;;;24.52;14.95;;;;;;;;;;5052981;28;20090;-63
2022/03/11 13:10:29;;;;;;;29.50;15.63;;;;;;;;;;5054265;28;20462;-62
2022/03/11 13:12:56;;;;;;;25.92;15.95;;;;;;;;;;5057565;28;20024;-62
2022/03/11 13:15:27;;;;;;;28.20;15.80;;;;;;;;;;5052386;28;20087;-61
2022/03/11 13:18:07;;;;;;;25.77;15.50;;;;;;;;;;5052797;28;20024;-62
2022/03/11 13:20:40;;;;;;;27.35;15.13;;;;;;;;;;5055788;28;20071;-61
2022/03/11 13:23:29;;;;;;;24.85;16.23;;;;;;;;;;5059832;28;20035;-63
2022/03/11 13:25:56;;;;;;;26.27;15.27;;;;;;;;;;5054700;28;20046;-62
2022/03/11 13:28:28;;;;;;;26.35;15.75;;;;;;;;;;5056294;28;20036;-62
2022/03/11 13:30:56;;;;;;;26.38;15.52;;;;;;;;;;5054653;28;20313;-62
2022/03/11 13:33:28;;;;;;;31.70;17.70;;;;;;;;;;5051144;28;20076;-63
2022/03/11 13:36:05;;;;;;;27.48;16.20;;;;;;;;;;5053264;28;20096;-62
2022/03/11 13:38:32;;;;;;;26.08;16.30;;;;;;;;;;5049288;28;20033;-62
2022/03/11 13:40:58;;;;;;;26.67;15.50;;;;;;;;;;5051218;28;20025;-62
2022/03/11 13:43:24;;;;;;;26.88;16.02;;;;;;;;;;5056630;28;20035;-62
2022/03/11 13:45:54;;;;;;;27.48;16.65;;;;;;;;;;5054485;28;20036;-62
2022/03/11 13:48:28;;;;;;;27.60;16.63;;;;;;;;;;5053770;28;20036;-62
2022/03/11 13:51:10;;;;;;;41.22;17.67;;;;;;;;;;5054153;28;20028;-63
2022/03/11 13:53:37;;;;;;;31.27;17.35;;;;;;;;;;5052908;28;20368;-63
2022/03/11 13:56:19;;;;;;;29.77;17.00;;;;;;;;;;5054845;28;20302;-62
2022/03/11 13:58:44;;;;;;;28.10;16.02;;;;;;;;;;5051414;28;20033;-62
2022/03/11 14:01:11;;;;;;;29.20;16.50;;;;;;;;;;5056257;28;20101;-63
2022/03/11 14:03:46;;;;;;;27.83;16.40;;;;;;;;;;5054332;28;20033;-63
2022/03/11 14:06:11;;;;;;;25.13;14.95;;;;;;;;;;5053424;28;20082;-63
2022/03/11 14:08:37;;;;;;;26.83;15.35;;;;;;;;;;5048322;28;20025;-63
2022/03/11 14:11:05;;;;;;;27.65;15.25;;;;;;;;;;5059140;28;20119;-63
2022/03/11 14:13:36;;;;;;;24.40;14.70;;;;;;;;;;5051843;28;20357;-62
2022/03/11 14:16:08;;;;;;;27.83;14.80;;;;;;;;;;5057221;28;20032;-63
2022/03/11 14:18:33;;;;;;;25.23;15.32;;;;;;;;;;5054332;28;20028;-63